Time;durP1;ratioP1;P1;durP2;ratioP2;P2;SDS_P1;SDS_P2;PMS_P1;PMS_P2;Temp;Humidity;BMP_temperature;BMP_pressure;BME280_temperature;BME280_humidity;BME280_pressure;Samples;Min_cycle;Max_cycle;Signal;HPM_P1;HPM_P2
2024/02/12 00:00:47;;;;;;;9.00;7.70;;;8.00;99.90;;;-141.84;100.00;119224.81;5039970;28;20312;-51
2024/02/12 00:03:17;;;;;;;10.00;7.03;;;8.00;99.90;;;-141.84;100.00;119224.81;5039264;28;20821;-52
2024/02/12 00:05:46;;;;;;;6.33;5.60;;;8.00;99.90;;;-141.84;100.00;119224.81;5040658;28;20225;-55
2024/02/12 00:08:16;;;;;;;7.67;6.30;;;8.00;99.90;;;-141.84;100.00;119224.81;5040549;28;20221;-55
2024/02/12 00:10:45;;;;;;;7.30;6.57;;;7.90;99.90;;;-141.84;100.00;119224.81;5042781;28;20221;-55
2024/02/12 00:13:17;;;;;;;8.47;5.57;;;7.90;99.90;;;-141.84;100.00;119224.81;5043263;28;20307;-55
2024/02/12 00:15:46;;;;;;;10.10;6.57;;;7.90;99.90;;;-141.84;100.00;119224.81;5039804;28;20226;-57
2024/02/12 00:18:14;;;;;;;7.43;5.90;;;8.00;99.90;;;-141.84;100.00;119224.81;5044444;28;20284;-56
2024/02/12 00:20:43;;;;;;;8.37;5.93;;;8.00;99.90;;;-141.84;100.00;119224.81;5042360;28;20668;-56
2024/02/12 00:23:11;;;;;;;7.93;5.63;;;8.00;99.90;;;-141.84;100.00;119224.81;5034035;28;20316;-55
2024/02/12 00:25:40;;;;;;;6.53;4.80;;;8.00;99.90;;;-141.84;100.00;119224.81;5042047;28;20221;-56
2024/02/12 00:28:08;;;;;;;7.03;5.30;;;8.00;99.90;;;-141.84;100.00;119224.81;5041177;28;20240;-54
2024/02/12 00:30:39;;;;;;;6.80;5.20;;;8.00;99.90;;;-141.84;100.00;119224.81;5050702;28;20251;-54
2024/02/12 00:33:08;;;;;;;7.30;5.10;;;8.00;99.90;;;-141.84;100.00;119224.81;5041743;28;20619;-55
2024/02/12 00:35:38;;;;;;;7.17;5.53;;;7.90;99.90;;;-141.84;100.00;119224.81;5041150;28;20295;-55
2024/02/12 00:38:07;;;;;;;7.53;5.17;;;8.00;99.90;;;-141.84;100.00;119224.81;5038978;28;20272;-53
2024/02/12 00:40:35;;;;;;;6.70;5.20;;;8.00;99.90;;;-141.84;100.00;119224.81;5038780;28;20316;-55
2024/02/12 00:43:04;;;;;;;7.07;5.60;;;8.00;99.90;;;-141.84;100.00;119224.81;5046932;28;20225;-56
2024/02/12 00:45:33;;;;;;;6.97;4.73;;;8.00;99.90;;;-141.84;100.00;119224.81;5038877;28;20237;-54
2024/02/12 00:48:04;;;;;;;6.60;4.90;;;7.90;99.90;;;-141.84;100.00;119224.81;5047123;28;20258;-55
2024/02/12 00:50:34;;;;;;;5.77;4.93;;;7.90;99.90;;;-141.84;100.00;119224.81;5039085;28;20313;-55
2024/02/12 00:53:03;;;;;;;7.50;5.10;;;7.90;99.90;;;-141.84;100.00;119224.81;5038760;28;20240;-55
2024/02/12 00:55:32;;;;;;;8.77;4.93;;;7.90;99.90;;;-141.84;100.00;119224.81;5039262;28;20283;-55
2024/02/12 00:58:02;;;;;;;6.17;4.97;;;7.90;99.90;;;-141.84;100.00;119224.81;5040823;28;20221;-55
2024/02/12 01:00:31;;;;;;;7.70;5.30;;;7.90;99.90;;;-141.84;100.00;119224.81;5041814;28;20228;-55
2024/02/12 01:03:01;;;;;;;7.30;4.63;;;7.90;99.90;;;-141.84;100.00;119224.81;5039736;28;20201;-54
2024/02/12 01:05:30;;;;;;;8.77;5.23;;;7.90;99.90;;;-141.84;100.00;119224.81;5043564;28;20279;-55
2024/02/12 01:07:58;;;;;;;7.57;5.47;;;7.80;99.90;;;-141.84;100.00;119224.81;5040736;28;20243;-54
2024/02/12 01:10:26;;;;;;;6.33;5.00;;;7.90;99.90;;;-141.84;100.00;119224.81;5038580;28;20642;-54
2024/02/12 01:12:55;;;;;;;5.80;4.63;;;7.80;99.90;;;-141.84;100.00;119224.81;5039216;28;20249;-56
2024/02/12 01:15:24;;;;;;;8.27;5.30;;;7.90;99.90;;;-141.84;100.00;119224.81;5041104;28;20240;-54
2024/02/12 01:17:53;;;;;;;6.97;5.47;;;7.90;99.90;;;-141.84;100.00;119224.81;5038482;28;20205;-53
2024/02/12 01:20:38;;;;;;;7.93;5.23;;;8.00;99.90;;;-141.84;100.00;119224.81;5038970;28;20210;-56
2024/02/12 01:23:08;;;;;;;6.53;5.20;;;8.00;99.90;;;-141.84;100.00;119224.81;5046553;28;21383;-56
2024/02/12 01:25:36;;;;;;;8.63;5.23;;;7.90;99.90;;;-141.84;100.00;119224.81;5038352;28;20640;-54
2024/02/12 01:28:06;;;;;;;7.93;5.83;;;7.90;99.90;;;-141.84;100.00;119224.81;5042053;28;20233;-57
2024/02/12 01:30:35;;;;;;;8.37;6.93;;;7.90;99.90;;;-141.84;100.00;119224.81;5041361;28;20336;-54
2024/02/12 01:33:06;;;;;;;9.87;7.53;;;7.90;99.90;;;-141.84;100.00;119224.81;5042767;28;20912;-55
2024/02/12 01:35:35;;;;;;;10.57;6.60;;;7.90;99.90;;;-141.84;100.00;119224.81;5042954;28;20210;-55
2024/02/12 01:38:08;;;;;;;8.30;5.90;;;7.90;99.90;;;-141.84;100.00;119224.81;5048486;28;20233;-55
2024/02/12 01:40:37;;;;;;;7.07;5.30;;;7.90;99.90;;;-141.84;100.00;119224.81;5045671;28;20222;-53
2024/02/12 01:43:05;;;;;;;7.93;6.17;;;7.90;99.90;;;-141.84;100.00;119224.81;5043293;28;20228;-55
2024/02/12 01:45:34;;;;;;;6.30;4.70;;;7.90;99.90;;;-141.84;100.00;119224.81;5045181;28;20600;-53
2024/02/12 01:48:05;;;;;;;5.00;4.47;;;7.90;99.90;;;-141.84;100.00;119224.81;5036852;28;20224;-53
2024/02/12 01:50:33;;;;;;;6.33;4.30;;;7.90;99.90;;;-141.84;100.00;119224.81;5045629;28;20294;-54
2024/02/12 01:53:04;;;;;;;5.93;4.20;;;7.90;99.90;;;-141.84;100.00;119224.81;5038729;28;20625;-53
2024/02/12 01:55:34;;;;;;;5.53;4.50;;;7.90;99.90;;;-141.84;100.00;119224.81;5047829;28;20222;-56
2024/02/12 01:58:05;;;;;;;4.60;3.97;;;8.00;99.90;;;-141.84;100.00;119224.81;5042416;28;20898;-53
2024/02/12 02:00:33;;;;;;;5.80;4.20;;;7.90;99.90;;;-141.84;100.00;119224.81;5041768;28;20582;-53
2024/02/12 02:03:01;;;;;;;5.03;3.93;;;7.90;99.90;;;-141.84;100.00;119224.81;5044872;28;20194;-55
2024/02/12 02:05:29;;;;;;;6.10;4.60;;;7.90;99.90;;;-141.84;100.00;119224.81;5044382;28;20233;-56
2024/02/12 02:08:00;;;;;;;5.33;4.20;;;7.90;99.90;;;-141.84;100.00;119224.81;5044095;28;20233;-54
2024/02/12 02:10:30;;;;;;;6.33;4.30;;;7.90;99.90;;;-141.84;100.00;119224.81;5041931;28;20237;-55
2024/02/12 02:12:59;;;;;;;6.40;4.10;;;7.80;99.90;;;-141.84;100.00;119224.81;5041179;28;20787;-55
2024/02/12 02:15:28;;;;;;;6.37;5.23;;;7.80;99.90;;;-141.84;100.00;119224.81;5041703;28;20248;-55
2024/02/12 02:17:56;;;;;;;10.03;7.37;;;7.80;99.90;;;-141.84;100.00;119224.81;5043088;28;20225;-50
2024/02/12 02:20:26;;;;;;;9.30;7.30;;;7.80;99.90;;;-141.84;100.00;119224.81;5017606;28;20701;-56
2024/02/12 02:22:56;;;;;;;7.57;6.83;;;7.70;99.90;;;-141.84;100.00;119224.81;5050549;28;20579;-54
2024/02/12 02:25:26;;;;;;;8.67;7.27;;;7.80;99.90;;;-141.84;100.00;119224.81;5042399;28;20716;-54
2024/02/12 02:27:54;;;;;;;7.60;6.30;;;7.80;99.90;;;-141.84;100.00;119224.81;5034070;28;20309;-55
2024/02/12 02:30:22;;;;;;;7.60;5.07;;;8.00;99.90;;;-141.84;100.00;119224.81;5042548;28;20894;-55
2024/02/12 02:32:51;;;;;;;6.73;4.83;;;7.80;99.90;;;-141.84;100.00;119224.81;5043080;28;20273;-56
2024/02/12 02:35:21;;;;;;;5.37;4.70;;;7.80;99.90;;;-141.84;100.00;119224.81;5040961;28;20230;-56
2024/02/12 02:37:49;;;;;;;5.83;5.03;;;7.80;99.90;;;-141.84;100.00;119224.81;5038755;28;20671;-55
2024/02/12 02:40:17;;;;;;;5.07;4.37;;;7.80;99.90;;;-141.84;100.00;119224.81;5038381;28;20673;-55
2024/02/12 02:42:48;;;;;;;4.93;3.97;;;7.70;99.90;;;-141.84;100.00;119224.81;5046958;28;20339;-66
2024/02/12 02:45:16;;;;;;;7.37;4.43;;;7.70;99.90;;;-141.84;100.00;119224.81;5044366;28;20247;-67
2024/02/12 02:47:44;;;;;;;5.63;4.20;;;7.70;99.90;;;-141.84;100.00;119224.81;5042770;28;20256;-66
2024/02/12 02:50:13;;;;;;;7.73;4.30;;;7.70;99.90;;;-141.84;100.00;119224.81;5034402;28;20604;-66
2024/02/12 02:52:41;;;;;;;4.50;4.03;;;7.70;99.90;;;-141.84;100.00;119224.81;5039665;28;20221;-67
2024/02/12 02:55:11;;;;;;;5.67;4.10;;;7.70;99.90;;;-141.84;100.00;119224.81;5040690;28;20883;-66
2024/02/12 02:57:41;;;;;;;7.33;4.03;;;7.70;99.90;;;-141.84;100.00;119224.81;5042496;28;20638;-67
2024/02/12 03:00:12;;;;;;;5.30;3.80;;;7.70;99.90;;;-141.84;100.00;119224.81;5038729;28;20263;-68
2024/02/12 03:02:42;;;;;;;5.30;4.10;;;7.70;99.90;;;-141.84;100.00;119224.81;5041265;28;20190;-67
2024/02/12 03:05:14;;;;;;;7.33;4.57;;;7.80;99.90;;;-141.84;100.00;119224.81;5048506;28;20308;-70
2024/02/12 03:07:43;;;;;;;4.70;3.70;;;7.80;99.90;;;-141.84;100.00;119224.81;5044495;28;20703;-68
2024/02/12 03:10:12;;;;;;;7.13;4.17;;;7.80;99.90;;;-141.84;100.00;119224.81;5032360;28;20237;-66
2024/02/12 03:12:41;;;;;;;4.37;3.97;;;7.70;99.90;;;-141.84;100.00;119224.81;5041317;28;20232;-67
2024/02/12 03:15:14;;;;;;;4.97;4.43;;;7.80;99.90;;;-141.84;100.00;119224.81;5047531;28;20212;-67
2024/02/12 03:17:44;;;;;;;6.30;4.03;;;7.80;99.90;;;-141.84;100.00;119224.81;5035911;28;20596;-67
2024/02/12 03:20:14;;;;;;;6.90;4.10;;;7.90;99.90;;;-141.84;100.00;119224.81;5042980;28;20223;-67
2024/02/12 03:22:43;;;;;;;5.37;3.80;;;7.80;99.90;;;-141.84;100.00;119224.81;5043085;28;20213;-67
2024/02/12 03:25:12;;;;;;;6.50;4.33;;;7.90;99.90;;;-141.84;100.00;119224.81;5040344;28;20272;-66
2024/02/12 03:27:42;;;;;;;7.00;4.40;;;7.90;99.90;;;-141.84;100.00;119224.81;5038397;28;20713;-68
2024/02/12 03:30:13;;;;;;;7.10;4.37;;;7.90;99.90;;;-141.84;100.00;118422.72;5041345;28;20202;-68
2024/02/12 03:32:41;;;;;;;5.70;4.73;;;7.90;99.90;;;-141.84;100.00;119222.75;5047280;28;20619;-67
2024/02/12 03:35:10;;;;;;;6.03;4.73;;;8.00;99.90;;;-141.84;100.00;119224.81;5040652;28;20233;-66
2024/02/12 03:37:40;;;;;;;5.70;4.47;;;7.90;99.90;;;-141.84;100.00;119222.75;5040237;28;20217;-67
2024/02/12 03:40:13;;;;;;;6.63;5.30;;;8.00;99.90;;;-141.84;100.00;119224.81;5043509;28;20232;-67
2024/02/12 03:42:41;;;;;;;6.33;4.53;;;7.90;99.90;;;-141.84;100.00;119224.81;5049528;28;20304;-66
2024/02/12 03:45:15;;;;;;;7.37;4.87;;;7.90;99.90;;;-141.84;100.00;119224.81;5042469;28;20216;-66
2024/02/12 03:47:44;;;;;;;7.43;4.10;;;7.90;99.90;;;-141.84;100.00;119224.81;5043010;28;20209;-65
2024/02/12 04:01:26;;;;;;;5.37;4.30;;;7.90;99.90;;;-141.84;100.00;119224.81;5039554;28;20232;-66
2024/02/12 04:03:54;;;;;;;4.97;4.30;;;7.90;99.90;;;-141.84;100.00;119224.81;5041057;28;20240;-68
2024/02/12 04:06:24;;;;;;;5.73;4.17;;;7.90;99.90;;;-141.84;100.00;119222.75;5042108;28;20275;-66
2024/02/12 04:08:53;;;;;;;5.67;4.23;;;8.00;99.90;;;-141.84;100.00;119224.81;5042849;28;20558;-66
2024/02/12 04:11:21;;;;;;;6.10;4.27;;;7.90;99.90;;;-141.84;100.00;119224.81;5041889;28;20312;-67
2024/02/12 04:13:49;;;;;;;4.93;3.67;;;7.90;99.90;;;-141.84;100.00;119224.81;5041928;28;20453;-67
2024/02/12 04:16:18;;;;;;;5.70;4.17;;;7.90;99.90;;;-141.84;100.00;119224.81;5041261;28;20291;-66
2024/02/12 04:18:48;;;;;;;6.30;4.20;;;7.90;99.90;;;-141.84;100.00;119224.81;5041278;28;20315;-67
2024/02/12 04:21:20;;;;;;;6.33;3.97;;;7.90;99.90;;;-141.84;100.00;119224.81;5041090;28;20193;-67
2024/02/12 04:23:49;;;;;;;6.03;4.30;;;7.90;99.90;;;-141.84;100.00;119224.81;5039886;28;20189;-66
2024/02/12 04:26:17;;;;;;;7.67;3.97;;;7.80;99.90;;;-141.84;100.00;119224.81;5038265;28;20222;-66
2024/02/12 04:28:48;;;;;;;4.90;3.93;;;7.90;99.90;;;-141.84;100.00;119224.81;5042478;28;20620;-68
2024/02/12 04:31:17;;;;;;;5.17;3.93;;;7.90;99.90;;;-141.84;100.00;119224.81;5040918;28;20230;-66
2024/02/12 04:33:46;;;;;;;4.80;4.10;;;8.00;99.90;;;-141.84;100.00;118956.03;5041203;28;20819;-66
2024/02/12 04:36:16;;;;;;;4.67;3.57;;;7.90;99.90;;;-141.84;100.00;118689.38;5041252;28;20247;-65
2024/02/12 04:38:45;;;;;;;5.97;4.33;;;8.00;99.90;;;-141.84;100.00;117089.69;5034233;28;20205;-66
2024/02/12 04:41:13;;;;;;;4.53;3.90;;;8.00;99.90;;;-141.84;100.00;118422.72;5046994;28;20221;-66
2024/02/12 04:43:42;;;;;;;4.53;3.97;;;8.00;99.90;;;-141.84;100.00;117089.69;5041221;28;20295;-64
2024/02/12 04:46:10;;;;;;;5.27;3.80;;;8.00;99.90;;;-141.84;100.00;115490.59;5041856;28;20283;-66
2024/02/12 04:48:40;;;;;;;5.77;4.80;;;8.10;99.90;;;-141.84;100.00;118156.06;5041679;28;20228;-65
2024/02/12 04:51:09;;;;;;;6.47;3.60;;;8.00;99.90;;;-141.84;100.00;117356.25;5040430;28;20860;-65
2024/02/12 04:53:39;;;;;;;4.13;3.60;;;8.00;99.90;;;-141.84;100.00;116290.06;5039702;28;20194;-66
2024/02/12 04:56:08;;;;;;;4.40;3.80;;;8.10;99.90;;;-141.84;100.00;116290.06;5038418;28;20222;-66
2024/02/12 04:58:38;;;;;;;5.67;3.57;;;8.10;99.90;;;-141.84;100.00;112294.34;5037481;28;20221;-66
2024/02/12 05:01:07;;;;;;;5.57;4.10;;;8.10;99.90;;;-141.84;100.00;112826.88;5041416;28;20693;-66
2024/02/12 05:03:37;;;;;;;6.57;4.00;;;8.10;99.90;;;-141.84;100.00;114691.31;5044543;28;20279;-66
2024/02/12 05:06:07;;;;;;;6.27;3.40;;;8.10;99.90;;;-141.84;100.00;116823.13;5042722;28;20296;-64
2024/02/12 05:08:35;;;;;;;3.83;3.50;;;8.10;99.90;;;-141.84;100.00;113625.81;5043073;28;20202;-66
2024/02/12 05:11:05;;;;;;;4.70;3.70;;;8.10;99.90;;;-141.84;100.00;113625.81;5049128;28;20275;-66
2024/02/12 05:13:34;;;;;;;3.50;3.00;;;8.10;99.90;;;-141.84;100.00;110164.91;5042594;28;20224;-67
2024/02/12 05:16:07;;;;;;;5.40;3.60;;;8.20;99.90;;;-141.84;100.00;110697.16;5049579;28;20267;-66
2024/02/12 05:24:09;;;;;;;6.67;5.97;;;8.10;99.90;;;-141.84;100.00;113093.19;5044779;28;20227;-65
2024/02/12 05:26:39;;;;;;;6.13;4.10;;;8.00;99.90;;;-141.84;100.00;113093.19;5046166;28;20237;-66
2024/02/12 05:29:08;;;;;;;6.47;5.50;;;8.20;99.90;;;-141.84;100.00;110697.16;5050000;28;20225;-65
2024/02/12 05:31:36;;;;;;;7.30;4.93;;;8.10;99.90;;;-141.84;100.00;111761.88;5042756;28;20221;-65
2024/02/12 05:34:06;;;;;;;4.50;4.10;;;8.10;99.90;;;-141.84;100.00;114691.31;5050151;28;20570;-66
2024/02/12 05:36:35;;;;;;;5.57;4.83;;;8.00;99.90;;;-141.84;100.00;116823.13;5036826;28;20276;-64
2024/02/12 05:39:03;;;;;;;5.60;4.27;;;8.00;99.90;;;-141.84;100.00;117889.44;5045048;28;20224;-66
2024/02/12 05:41:31;;;;;;;4.13;3.67;;;8.00;99.90;;;-141.84;100.00;118956.03;5043657;28;20217;-65
2024/02/12 05:44:04;;;;;;;4.47;4.07;;;7.90;99.90;;;-141.84;100.00;118689.38;5039640;28;20306;-65
2024/02/12 05:46:32;;;;;;;4.43;3.50;;;7.90;99.90;;;-141.84;100.00;118956.03;5038098;28;20225;-66
2024/02/12 05:49:01;;;;;;;4.07;3.63;;;7.90;99.90;;;-141.84;100.00;119222.75;5040475;28;20264;-64
2024/02/12 05:51:29;;;;;;;5.80;5.07;;;7.90;99.90;;;-141.84;100.00;119222.75;5042315;28;20237;-66
2024/02/12 05:53:57;;;;;;;4.53;4.00;;;7.90;99.90;;;-141.84;100.00;119222.75;5041258;28;20286;-65
2024/02/12 05:56:26;;;;;;;4.67;4.00;;;7.90;99.90;;;-141.84;100.00;119224.81;5027334;28;20233;-65
2024/02/12 05:58:54;;;;;;;5.07;3.73;;;7.80;99.90;;;-141.84;100.00;119224.81;5043023;28;20213;-64
2024/02/12 06:01:27;;;;;;;4.37;3.90;;;7.80;99.90;;;-141.84;100.00;119224.81;5038938;28;20226;-65
2024/02/12 06:03:56;;;;;;;5.00;4.03;;;7.80;99.90;;;-141.84;100.00;119224.81;5051942;28;20348;-54
2024/02/12 06:06:25;;;;;;;4.70;3.40;;;7.80;99.90;;;-141.84;100.00;118956.03;5043580;28;20280;-54
2024/02/12 06:08:53;;;;;;;3.87;3.47;;;7.90;99.90;;;-141.84;100.00;118956.03;5037954;28;20253;-56
2024/02/12 06:11:22;;;;;;;4.70;3.93;;;7.80;99.90;;;-141.84;100.00;119222.75;5034462;28;20836;-54
2024/02/12 06:13:50;;;;;;;4.67;3.50;;;7.90;99.90;;;-141.84;100.00;117622.84;5045566;28;20217;-53
2024/02/12 06:16:19;;;;;;;4.10;3.33;;;7.90;99.90;;;-141.84;100.00;116290.06;5038729;28;20245;-54
2024/02/12 06:18:50;;;;;;;4.17;3.77;;;7.90;99.90;;;-141.84;100.00;114424.91;5047736;28;20217;-55
2024/02/12 06:21:20;;;;;;;5.03;3.67;;;7.90;99.90;;;-141.84;100.00;113359.50;5040981;28;20202;-54
2024/02/12 06:23:48;;;;;;;4.13;3.53;;;8.00;99.90;;;-141.84;100.00;114957.72;5042613;28;20198;-53
2024/02/12 06:26:21;;;;;;;4.97;3.80;;;7.90;99.90;;;-141.84;100.00;116290.06;5043380;28;20222;-54
2024/02/12 06:28:50;;;;;;;4.43;3.97;;;7.90;99.90;;;-141.84;100.00;115757.06;5047699;28;20309;-56
2024/02/12 06:31:19;;;;;;;5.17;3.87;;;7.90;99.90;;;-141.84;100.00;117089.69;5044057;28;20245;-53
2024/02/12 06:33:48;;;;;;;4.03;3.63;;;7.90;99.90;;;-141.84;100.00;117889.44;5045519;28;20634;-54
2024/02/12 06:36:17;;;;;;;4.03;3.50;;;7.90;99.90;;;-141.84;100.00;116823.13;5051328;28;20201;-65
2024/02/12 06:38:45;;;;;;;4.60;3.77;;;7.90;99.90;;;-141.84;100.00;117356.25;5038291;28;20624;-65
2024/02/12 06:41:13;;;;;;;3.60;3.30;;;7.90;99.90;;;-141.84;100.00;117889.44;5034892;28;20222;-64
2024/02/12 06:43:42;;;;;;;4.80;3.60;;;7.90;99.90;;;-141.84;100.00;115490.59;5050221;28;20221;-66
2024/02/12 06:46:10;;;;;;;4.10;3.70;;;7.90;99.90;;;-141.84;100.00;116556.59;5040961;28;20249;-64
2024/02/12 06:48:39;;;;;;;5.10;3.80;;;7.90;99.90;;;-141.84;100.00;116556.59;5040485;28;20225;-65
2024/02/12 06:51:09;;;;;;;6.43;3.80;;;7.90;99.90;;;-141.84;100.00;116823.13;5045871;28;20209;-65
2024/02/12 06:53:37;;;;;;;6.07;3.90;;;7.90;99.90;;;-141.84;100.00;113892.16;5039070;28;20645;-65
2024/02/12 06:56:07;;;;;;;5.10;3.63;;;7.90;99.90;;;-141.84;100.00;116556.59;5046158;28;20603;-66
2024/02/12 06:58:37;;;;;;;4.70;3.70;;;7.90;99.90;;;-141.84;100.00;114158.53;5033733;28;20237;-66
2024/02/12 07:01:05;;;;;;;5.47;3.70;;;7.90;99.90;;;-141.84;100.00;114691.31;5049648;28;20221;-66
2024/02/12 07:03:34;;;;;;;4.30;3.83;;;7.90;99.90;;;-141.84;100.00;116823.13;5035195;28;20226;-65
2024/02/12 07:06:02;;;;;;;3.90;3.50;;;7.90;99.90;;;-141.84;100.00;118422.72;5044441;28;20193;-65
2024/02/12 07:08:32;;;;;;;4.00;3.50;;;7.90;99.90;;;-141.84;100.00;117889.44;5044283;28;20214;-66
2024/02/12 07:11:01;;;;;;;5.10;4.07;;;7.90;99.90;;;-141.84;100.00;117089.69;5041021;28;20236;-66
2024/02/12 07:13:29;;;;;;;3.97;3.30;;;7.90;99.90;;;-141.84;100.00;116823.13;5044623;28;20225;-66
2024/02/12 07:15:58;;;;;;;4.87;3.93;;;7.90;99.90;;;-141.84;100.00;116023.56;5041354;28;20272;-65
2024/02/12 07:18:26;;;;;;;6.67;4.50;;;7.90;99.90;;;-141.84;100.00;114691.31;5042613;28;20226;-65
2024/02/12 07:20:55;;;;;;;5.17;3.93;;;8.00;99.90;;;-141.84;100.00;115490.59;5040687;28;20197;-66
2024/02/12 07:23:25;;;;;;;6.77;4.43;;;8.00;99.90;;;-141.84;100.00;117622.84;5043794;28;20233;-65
2024/02/12 07:25:55;;;;;;;6.40;3.80;;;8.00;99.90;;;-141.84;100.00;117889.44;5031863;28;20240;-65
2024/02/12 07:28:25;;;;;;;4.87;4.17;;;8.00;99.90;;;-141.84;100.00;119222.75;5045122;28;20241;-64
2024/02/12 07:30:53;;;;;;;5.27;4.57;;;8.00;99.90;;;-141.84;100.00;118689.38;5035256;28;20237;-65
2024/02/12 07:33:26;;;;;;;5.70;4.70;;;8.00;99.90;;;-141.84;100.00;118422.72;5053308;28;20201;-66
2024/02/12 07:35:55;;;;;;;5.23;4.60;;;8.00;99.90;;;-141.84;100.00;116823.13;5048042;28;20203;-64
2024/02/12 07:38:25;;;;;;;5.93;4.70;;;8.00;99.90;;;-141.84;100.00;117356.25;5046379;28;20225;-65
2024/02/12 07:40:56;;;;;;;7.63;6.00;;;8.00;99.90;;;-141.84;100.00;116823.13;5044276;28;20264;-65
2024/02/12 07:43:28;;;;;;;5.40;4.63;;;8.10;99.90;;;-141.84;100.00;116290.06;5047130;28;20260;-65
2024/02/12 07:45:57;;;;;;;24.47;18.23;;;8.10;99.90;;;-141.84;100.00;114691.31;5038727;28;20279;-65
2024/02/12 07:48:26;;;;;;;8.07;5.63;;;8.20;99.90;;;-141.84;100.00;113892.16;5047880;28;20206;-65
2024/02/12 07:50:56;;;;;;;6.43;5.50;;;8.20;99.90;;;-141.84;100.00;113625.81;5045266;28;20278;-54
2024/02/12 07:53:28;;;;;;;7.93;5.87;;;8.20;99.90;;;-141.84;100.00;113359.50;5047626;28;20245;-54
2024/02/12 07:56:00;;;;;;;7.20;5.80;;;8.20;99.90;;;-141.84;100.00;110963.31;5046929;28;20252;-53
2024/02/12 07:58:31;;;;;;;7.07;5.63;;;8.30;99.90;;;-141.84;100.00;113625.81;5044256;28;20221;-53
2024/02/12 08:01:00;;;;;;;5.83;5.23;;;8.30;99.90;;;-141.84;100.00;114691.31;5044013;28;20226;-53
2024/02/12 08:03:32;;;;;;;6.27;5.67;;;8.30;99.90;;;-141.84;100.00;113625.81;5044746;28;20221;-65
2024/02/12 08:06:05;;;;;;;7.23;5.43;;;8.40;99.90;;;-141.84;100.00;114957.72;5046914;28;20197;-51
2024/02/12 08:08:33;;;;;;;6.60;5.57;;;8.40;99.90;;;-141.84;100.00;114957.72;5047110;28;20249;-65
2024/02/12 08:11:08;;;;;;;6.93;4.87;;;8.40;99.90;;;-141.84;100.00;114424.91;5045770;28;20265;-66
2024/02/12 08:13:36;;;;;;;5.60;4.30;;;8.50;99.90;;;-141.84;100.00;108568.56;5050285;28;20701;-65
2024/02/12 08:16:09;;;;;;;6.47;4.50;;;8.60;99.90;;;-141.84;99.89;108834.56;5053428;28;20225;-65
2024/02/12 08:18:37;;;;;;;5.23;4.37;;;8.60;99.90;;;-141.84;100.00;108568.56;5039144;28;20286;-66
2024/02/12 08:21:06;;;;;;;5.43;4.30;;;8.70;99.90;;;-141.84;98.95;106972.81;5047626;28;20224;-66
2024/02/12 08:23:35;;;;;;;4.70;4.27;;;8.70;99.90;;;-141.84;98.13;105643.53;5045257;28;20220;-65
2024/02/12 08:26:07;;;;;;;7.17;4.30;;;8.80;99.90;;;-141.84;93.23;93699.44;5044106;28;20222;-66
2024/02/12 08:28:35;;;;;;;5.57;4.40;;;8.90;99.90;;;-141.84;91.96;91579.72;5047356;28;20577;-65
2024/02/12 08:31:05;;;;;;;4.97;4.20;;;8.90;99.90;;;-141.84;92.11;90255.47;5046359;28;20234;-65
2024/02/12 08:33:34;;;;;;;5.30;4.43;;;8.90;99.90;;;-141.84;89.46;81790.53;5041219;28;20229;-65
2024/02/12 08:36:06;;;;;;;4.70;3.93;;;9.10;99.90;;;-141.84;88.31;78092.72;5044282;28;20234;-65
2024/02/12 08:38:34;;;;;;;4.73;3.63;;;9.00;99.90;;;-141.84;91.08;86549.84;5043933;28;20268;-64
2024/02/12 08:41:06;;;;;;;6.83;4.67;;;9.00;99.90;;;-141.84;92.74;92374.47;5044217;28;20225;-64
2024/02/12 08:43:35;;;;;;;5.03;3.80;;;9.10;99.90;;;-141.84;93.59;94494.59;5042016;28;20221;-65
2024/02/12 08:46:05;;;;;;;5.90;4.30;;;9.10;99.90;;;-141.84;93.13;93699.44;5043810;28;20249;-65
2024/02/12 08:48:33;;;;;;;7.10;4.90;;;9.10;99.90;;;-141.84;92.27;91579.72;5043320;28;20250;-65
2024/02/12 08:51:06;;;;;;;5.87;4.20;;;9.00;99.90;;;-141.84;89.75;83640.72;5045815;28;20232;-66
2024/02/12 08:53:34;;;;;;;4.97;3.90;;;9.00;99.90;;;-141.84;89.84;83112.00;5046496;28;20208;-66
2024/02/12 08:56:08;;;;;;;5.63;4.77;;;9.00;99.90;;;-141.84;88.24;78620.75;5045815;28;20222;-66
2024/02/12 08:58:36;;;;;;;6.13;4.73;;;9.00;99.90;;;-141.84;89.07;80997.84;5047906;28;20228;-65
2024/02/12 09:01:09;;;;;;;6.00;4.37;;;9.10;99.90;;;-141.84;89.57;82583.34;5043718;28;20248;-67
2024/02/12 09:03:45;;;;;;;7.07;4.60;;;9.10;99.90;;;-141.84;90.77;86549.84;5044894;28;20638;-64
2024/02/12 09:06:15;;;;;;;5.23;4.20;;;9.10;99.90;;;-141.84;89.73;83376.34;5044640;28;20229;-65
2024/02/12 09:08:46;;;;;;;4.90;4.13;;;9.20;99.90;;;-141.84;88.38;81262.06;5045424;28;20197;-67
2024/02/12 09:11:17;;;;;;;5.53;3.97;;;9.20;99.90;;;-141.84;87.50;75717.34;5042286;28;20222;-57
2024/02/12 09:13:47;;;;;;;4.40;4.00;;;9.20;99.90;;;-141.84;89.53;82054.78;5046205;28;20232;-55
2024/02/12 09:16:16;;;;;;;5.70;4.17;;;9.20;99.90;;;-141.84;90.62;86549.84;5044112;28;20268;-54
2024/02/12 09:18:46;;;;;;;5.93;4.60;;;9.30;99.90;;;-141.84;88.94;82847.66;5043620;28;20245;-55
2024/02/12 09:21:15;;;;;;;5.63;4.43;;;9.20;99.90;;;-141.84;86.21;69916.81;5043219;28;20186;-55
2024/02/12 09:23:45;;;;;;;8.30;4.70;;;9.30;99.90;;;-141.84;85.89;68599.69;5043783;28;20242;-53
2024/02/12 09:26:13;;;;;;;5.87;4.80;;;9.40;99.90;;;-141.84;85.98;69389.94;5042772;28;20230;-52
2024/02/12 09:28:46;;;;;;;5.90;4.77;;;9.50;99.90;;;-141.84;85.36;67546.31;5047169;28;20280;-53
2024/02/12 09:31:14;;;;;;;6.37;4.47;;;9.60;99.90;;;-141.84;84.95;64914.06;5045392;28;20775;-55
2024/02/12 09:33:46;;;;;;;5.63;5.03;;;9.70;99.90;;;-141.84;82.14;50205.56;5045750;28;20252;-54
2024/02/12 09:36:15;;;;;;;5.73;5.00;;;9.80;99.90;;;-141.84;80.07;32863.06;5043381;28;20249;-53
2024/02/12 09:38:47;;;;;;;7.53;5.00;;;9.90;99.90;;;-141.84;79.56;29685.28;5043755;28;20197;-54
2024/02/12 09:41:16;;;;;;;5.97;5.00;;;10.00;99.90;;;-141.84;79.91;32883.44;5045022;28;20226;-56
2024/02/12 09:43:47;;;;;;;6.70;5.03;;;10.00;99.90;;;-141.84;79.08;28253.19;5043294;28;20230;-55
2024/02/12 09:46:18;;;;;;;5.37;4.70;;;10.10;99.90;;;-141.84;78.78;26265.81;5042598;28;20222;-56
2024/02/12 09:48:51;;;;;;;5.63;5.13;;;10.00;99.90;;;-141.84;80.76;39669.56;5018542;28;20217;-56
2024/02/12 09:51:27;;;;;;;6.63;4.57;;;10.10;99.90;;;-141.84;81.57;43656.88;5048346;28;20240;-52
2024/02/12 09:54:01;;;;;;;7.07;4.93;;;10.00;99.90;;;-141.84;80.55;37896.88;5047265;28;20186;-53
2024/02/12 09:56:32;;;;;;;4.90;4.40;;;10.10;99.90;;;-141.84;79.49;31662.16;5028343;28;20297;-64
2024/02/12 09:59:08;;;;;;;4.47;4.07;;;10.20;99.90;;;-141.84;77.31;22346.97;5045983;28;20742;-65
2024/02/12 10:01:37;;;;;;;4.57;4.07;;;10.30;99.90;;;-141.84;77.84;23245.97;5046720;28;20638;-64
2024/02/12 10:04:07;;;;;;;5.53;4.23;;;10.20;99.90;;;-141.84;77.37;22442.56;5047198;28;20229;-54
2024/02/12 10:06:36;;;;;;;4.83;4.33;;;10.30;99.90;;;-141.84;75.54;19671.56;5046654;28;20234;-55
2024/02/12 10:09:07;;;;;;;4.97;3.90;;;10.30;99.90;;;-141.84;75.17;19368.78;5054876;28;20190;-55
2024/02/12 10:11:35;;;;;;;4.07;3.67;;;10.30;99.90;;;-141.84;75.32;19535.41;5050935;28;20232;-54
2024/02/12 10:14:06;;;;;;;3.97;3.57;;;10.40;99.90;;;-141.84;76.21;20366.69;5039242;28;20230;-55
2024/02/12 10:16:36;;;;;;;5.43;3.80;;;10.40;99.90;;;-141.84;75.49;19844.31;5046066;28;20224;-51
2024/02/12 10:19:06;;;;;;;4.33;3.50;;;10.50;99.90;;;-141.84;74.45;19283.44;5046331;28;20229;-54
2024/02/12 10:21:35;;;;;;;5.67;4.10;;;10.60;99.90;;;-141.84;73.12;18834.38;5054389;28;20241;-53
2024/02/12 10:24:06;;;;;;;6.40;4.97;;;10.60;99.90;;;-141.84;72.05;18627.13;5047279;28;20202;-54
2024/02/12 10:26:34;;;;;;;6.60;5.30;;;10.70;99.90;;;-141.84;73.26;18893.28;5046646;28;20607;-53
2024/02/12 10:29:06;;;;;;;4.40;4.00;;;10.70;99.90;;;-141.84;72.22;18724.66;5051759;28;20225;-52